Terminal Aerodrome Forecast
Issued by NWS

Home | Current Version | Previous Version | Text Only | Print | Product List | Glossary On
Versions: 1 2 3 4 5 6 7 8 9 10 11 12
137
FTUS42 TJSJ 281740
TAFNCM
TAF
TNCM 281740Z 2818/2918 10012KT P6SM VCSH SCT019
     FM282300 08009KT P6SM FEW022
     FM291300 09012KT P6SM SCT020=

USA.gov is the U.S. government's official web portal to all federal, state and local government web resources and services.